sensor_id;sensor_type;location;lat;lon;timestamp;P1;durP1;ratioP1;P2;durP2;ratioP2
50393;SDS011;36308;46.312;25.288;2023-11-22T00:00:41;32.20;;;21.08;;
50393;SDS011;36308;46.312;25.288;2023-11-22T00:03:07;35.90;;;20.75;;
50393;SDS011;36308;46.312;25.288;2023-11-22T00:05:32;35.60;;;21.10;;
50393;SDS011;36308;46.312;25.288;2023-11-22T00:07:58;32.17;;;19.73;;
50393;SDS011;36308;46.312;25.288;2023-11-22T00:10:23;27.15;;;17.65;;
50393;SDS011;36308;46.312;25.288;2023-11-22T00:12:49;28.55;;;18.05;;
50393;SDS011;36308;46.312;25.288;2023-11-22T00:15:16;29.23;;;18.30;;
50393;SDS011;36308;46.312;25.288;2023-11-22T00:17:46;25.90;;;17.13;;
50393;SDS011;36308;46.312;25.288;2023-11-22T00:20:12;21.73;;;13.55;;
50393;SDS011;36308;46.312;25.288;2023-11-22T00:22:38;17.13;;;10.32;;
50393;SDS011;36308;46.312;25.288;2023-11-22T00:25:03;14.88;;;7.97;;
50393;SDS011;36308;46.312;25.288;2023-11-22T00:27:30;11.98;;;8.13;;
50393;SDS011;36308;46.312;25.288;2023-11-22T00:29:58;12.52;;;7.65;;
50393;SDS011;36308;46.312;25.288;2023-11-22T00:32:24;12.60;;;8.10;;
50393;SDS011;36308;46.312;25.288;2023-11-22T00:34:51;12.13;;;7.57;;
50393;SDS011;36308;46.312;25.288;2023-11-22T00:37:16;15.20;;;8.43;;
50393;SDS011;36308;46.312;25.288;2023-11-22T00:39:42;17.63;;;10.77;;
50393;SDS011;36308;46.312;25.288;2023-11-22T00:42:08;18.50;;;11.32;;
50393;SDS011;36308;46.312;25.288;2023-11-22T00:44:33;17.17;;;10.45;;
50393;SDS011;36308;46.312;25.288;2023-11-22T00:47:01;13.30;;;8.82;;
50393;SDS011;36308;46.312;25.288;2023-11-22T00:49:27;13.45;;;8.68;;
50393;SDS011;36308;46.312;25.288;2023-11-22T00:51:52;14.05;;;9.45;;
50393;SDS011;36308;46.312;25.288;2023-11-22T00:54:18;15.55;;;9.13;;
50393;SDS011;36308;46.312;25.288;2023-11-22T00:56:45;13.98;;;7.82;;
50393;SDS011;36308;46.312;25.288;2023-11-22T00:59:11;13.88;;;8.20;;
50393;SDS011;36308;46.312;25.288;2023-11-22T01:01:36;11.73;;;7.28;;
50393;SDS011;36308;46.312;25.288;2023-11-22T01:04:02;13.40;;;7.95;;
50393;SDS011;36308;46.312;25.288;2023-11-22T01:06:27;14.23;;;7.68;;
50393;SDS011;36308;46.312;25.288;2023-11-22T01:08:54;15.35;;;8.15;;
50393;SDS011;36308;46.312;25.288;2023-11-22T01:11:19;17.10;;;9.50;;
50393;SDS011;36308;46.312;25.288;2023-11-22T01:13:45;16.10;;;9.15;;
50393;SDS011;36308;46.312;25.288;2023-11-22T01:16:11;15.52;;;8.68;;
50393;SDS011;36308;46.312;25.288;2023-11-22T01:18:38;16.38;;;9.60;;
50393;SDS011;36308;46.312;25.288;2023-11-22T01:21:03;34.47;;;17.42;;
50393;SDS011;36308;46.312;25.288;2023-11-22T01:23:29;25.63;;;14.05;;
50393;SDS011;36308;46.312;25.288;2023-11-22T01:25:56;23.23;;;12.20;;
50393;SDS011;36308;46.312;25.288;2023-11-22T01:28:23;18.80;;;10.10;;
50393;SDS011;36308;46.312;25.288;2023-11-22T01:30:49;15.27;;;9.13;;
50393;SDS011;36308;46.312;25.288;2023-11-22T01:33:15;12.50;;;7.97;;
50393;SDS011;36308;46.312;25.288;2023-11-22T01:35:40;12.50;;;7.47;;
50393;SDS011;36308;46.312;25.288;2023-11-22T01:38:06;13.25;;;8.05;;
50393;SDS011;36308;46.312;25.288;2023-11-22T01:40:32;13.70;;;7.75;;
50393;SDS011;36308;46.312;25.288;2023-11-22T01:42:58;12.75;;;7.32;;
50393;SDS011;36308;46.312;25.288;2023-11-22T01:45:24;18.05;;;8.73;;
50393;SDS011;36308;46.312;25.288;2023-11-22T01:47:50;11.60;;;6.93;;
50393;SDS011;36308;46.312;25.288;2023-11-22T01:50:16;11.82;;;7.22;;
50393;SDS011;36308;46.312;25.288;2023-11-22T01:52:42;11.68;;;7.32;;
50393;SDS011;36308;46.312;25.288;2023-11-22T01:55:08;14.48;;;6.90;;
50393;SDS011;36308;46.312;25.288;2023-11-22T01:57:34;10.80;;;6.70;;
50393;SDS011;36308;46.312;25.288;2023-11-22T02:00:01;9.70;;;6.00;;
50393;SDS011;36308;46.312;25.288;2023-11-22T02:02:29;12.52;;;7.55;;
50393;SDS011;36308;46.312;25.288;2023-11-22T02:04:55;15.27;;;7.68;;
50393;SDS011;36308;46.312;25.288;2023-11-22T02:07:21;10.40;;;5.97;;
50393;SDS011;36308;46.312;25.288;2023-11-22T02:09:47;12.48;;;5.95;;
50393;SDS011;36308;46.312;25.288;2023-11-22T02:12:12;11.80;;;6.30;;
50393;SDS011;36308;46.312;25.288;2023-11-22T02:14:38;10.70;;;6.00;;
50393;SDS011;36308;46.312;25.288;2023-11-22T02:17:03;11.38;;;5.88;;
50393;SDS011;36308;46.312;25.288;2023-11-22T02:19:29;11.35;;;6.20;;
50393;SDS011;36308;46.312;25.288;2023-11-22T02:21:58;13.35;;;7.22;;
50393;SDS011;36308;46.312;25.288;2023-11-22T02:24:24;13.10;;;7.72;;
50393;SDS011;36308;46.312;25.288;2023-11-22T02:26:49;15.73;;;9.63;;
50393;SDS011;36308;46.312;25.288;2023-11-22T02:29:15;18.42;;;12.15;;
50393;SDS011;36308;46.312;25.288;2023-11-22T02:31:41;13.40;;;8.48;;
50393;SDS011;36308;46.312;25.288;2023-11-22T02:34:08;10.50;;;6.10;;
50393;SDS011;36308;46.312;25.288;2023-11-22T02:36:34;8.88;;;5.35;;
50393;SDS011;36308;46.312;25.288;2023-11-22T02:38:59;8.60;;;5.65;;
50393;SDS011;36308;46.312;25.288;2023-11-22T02:41:28;10.40;;;6.30;;
50393;SDS011;36308;46.312;25.288;2023-11-22T02:43:55;9.02;;;5.95;;
50393;SDS011;36308;46.312;25.288;2023-11-22T02:46:20;8.77;;;5.60;;
50393;SDS011;36308;46.312;25.288;2023-11-22T02:48:46;10.80;;;5.82;;
50393;SDS011;36308;46.312;25.288;2023-11-22T02:51:12;10.05;;;5.97;;
50393;SDS011;36308;46.312;25.288;2023-11-22T02:53:39;8.40;;;5.70;;
50393;SDS011;36308;46.312;25.288;2023-11-22T02:56:08;11.13;;;6.15;;
50393;SDS011;36308;46.312;25.288;2023-11-22T02:58:34;10.95;;;6.53;;
50393;SDS011;36308;46.312;25.288;2023-11-22T03:01:00;10.48;;;6.35;;
50393;SDS011;36308;46.312;25.288;2023-11-22T03:03:26;11.15;;;6.30;;
50393;SDS011;36308;46.312;25.288;2023-11-22T03:05:52;10.88;;;7.10;;
50393;SDS011;36308;46.312;25.288;2023-11-22T03:08:18;9.57;;;6.47;;
50393;SDS011;36308;46.312;25.288;2023-11-22T03:10:43;10.00;;;6.70;;
50393;SDS011;36308;46.312;25.288;2023-11-22T03:13:09;13.68;;;6.75;;
50393;SDS011;36308;46.312;25.288;2023-11-22T03:15:34;12.23;;;7.55;;
50393;SDS011;36308;46.312;25.288;2023-11-22T03:18:01;14.77;;;8.80;;
50393;SDS011;36308;46.312;25.288;2023-11-22T03:20:28;12.73;;;7.95;;
50393;SDS011;36308;46.312;25.288;2023-11-22T03:22:53;15.32;;;9.13;;
50393;SDS011;36308;46.312;25.288;2023-11-22T03:25:20;13.45;;;8.93;;
50393;SDS011;36308;46.312;25.288;2023-11-22T03:27:45;12.80;;;7.85;;
50393;SDS011;36308;46.312;25.288;2023-11-22T03:30:12;11.30;;;6.97;;
50393;SDS011;36308;46.312;25.288;2023-11-22T03:32:40;15.50;;;7.30;;
50393;SDS011;36308;46.312;25.288;2023-11-22T03:35:06;10.55;;;6.35;;
50393;SDS011;36308;46.312;25.288;2023-11-22T03:37:32;11.40;;;6.88;;
50393;SDS011;36308;46.312;25.288;2023-11-22T03:39:58;13.10;;;7.47;;
50393;SDS011;36308;46.312;25.288;2023-11-22T03:42:24;12.13;;;7.50;;
50393;SDS011;36308;46.312;25.288;2023-11-22T03:44:49;17.42;;;7.75;;
50393;SDS011;36308;46.312;25.288;2023-11-22T03:47:15;13.60;;;7.10;;
50393;SDS011;36308;46.312;25.288;2023-11-22T03:49:41;16.83;;;7.45;;
50393;SDS011;36308;46.312;25.288;2023-11-22T03:52:08;9.93;;;6.00;;
50393;SDS011;36308;46.312;25.288;2023-11-22T03:54:35;11.32;;;6.72;;
50393;SDS011;36308;46.312;25.288;2023-11-22T03:57:01;9.93;;;6.90;;
50393;SDS011;36308;46.312;25.288;2023-11-22T03:59:27;9.88;;;6.53;;
50393;SDS011;36308;46.312;25.288;2023-11-22T04:01:53;12.38;;;7.13;;
50393;SDS011;36308;46.312;25.288;2023-11-22T04:04:19;9.30;;;5.60;;
50393;SDS011;36308;46.312;25.288;2023-11-22T04:06:44;9.20;;;5.88;;
50393;SDS011;36308;46.312;25.288;2023-11-22T04:09:10;11.25;;;7.10;;
50393;SDS011;36308;46.312;25.288;2023-11-22T04:11:37;10.70;;;6.35;;
50393;SDS011;36308;46.312;25.288;2023-11-22T04:14:03;9.88;;;6.50;;
50393;SDS011;36308;46.312;25.288;2023-11-22T04:16:29;9.18;;;6.22;;
50393;SDS011;36308;46.312;25.288;2023-11-22T04:18:56;10.15;;;6.32;;
50393;SDS011;36308;46.312;25.288;2023-11-22T04:21:22;11.55;;;6.65;;
50393;SDS011;36308;46.312;25.288;2023-11-22T04:23:48;11.90;;;5.70;;
50393;SDS011;36308;46.312;25.288;2023-11-22T04:26:13;10.15;;;5.88;;
50393;SDS011;36308;46.312;25.288;2023-11-22T04:28:39;11.65;;;6.78;;
50393;SDS011;36308;46.312;25.288;2023-11-22T04:31:04;13.23;;;6.97;;
50393;SDS011;36308;46.312;25.288;2023-11-22T04:33:30;10.90;;;7.15;;
50393;SDS011;36308;46.312;25.288;2023-11-22T04:35:56;9.98;;;5.75;;
50393;SDS011;36308;46.312;25.288;2023-11-22T04:38:21;9.93;;;6.20;;
50393;SDS011;36308;46.312;25.288;2023-11-22T04:40:47;9.40;;;5.60;;
50393;SDS011;36308;46.312;25.288;2023-11-22T04:43:13;10.98;;;5.63;;
50393;SDS011;36308;46.312;25.288;2023-11-22T04:45:38;13.35;;;7.50;;
50393;SDS011;36308;46.312;25.288;2023-11-22T04:48:04;13.00;;;7.20;;
50393;SDS011;36308;46.312;25.288;2023-11-22T04:50:31;11.90;;;7.20;;
50393;SDS011;36308;46.312;25.288;2023-11-22T04:52:57;11.07;;;6.97;;
50393;SDS011;36308;46.312;25.288;2023-11-22T04:55:23;10.23;;;6.05;;
50393;SDS011;36308;46.312;25.288;2023-11-22T04:57:48;9.90;;;6.25;;
50393;SDS011;36308;46.312;25.288;2023-11-22T05:00:14;13.50;;;6.55;;
50393;SDS011;36308;46.312;25.288;2023-11-22T05:02:40;14.35;;;9.13;;
50393;SDS011;36308;46.312;25.288;2023-11-22T05:05:06;17.55;;;11.05;;
50393;SDS011;36308;46.312;25.288;2023-11-22T05:07:35;18.55;;;12.10;;
50393;SDS011;36308;46.312;25.288;2023-11-22T05:10:01;20.58;;;12.13;;
50393;SDS011;36308;46.312;25.288;2023-11-22T05:12:28;17.45;;;11.20;;
50393;SDS011;36308;46.312;25.288;2023-11-22T05:14:53;21.92;;;13.02;;
50393;SDS011;36308;46.312;25.288;2023-11-22T05:20:04;26.40;;;13.02;;
50393;SDS011;36308;46.312;25.288;2023-11-22T05:22:30;26.35;;;18.10;;
50393;SDS011;36308;46.312;25.288;2023-11-22T05:28:17;16.67;;;11.48;;
50393;SDS011;36308;46.312;25.288;2023-11-22T05:30:43;22.08;;;13.73;;
50393;SDS011;36308;46.312;25.288;2023-11-22T05:33:08;26.00;;;14.82;;
50393;SDS011;36308;46.312;25.288;2023-11-22T05:35:34;22.15;;;13.65;;
50393;SDS011;36308;46.312;25.288;2023-11-22T05:37:59;22.58;;;14.52;;
50393;SDS011;36308;46.312;25.288;2023-11-22T05:40:25;22.33;;;14.48;;
50393;SDS011;36308;46.312;25.288;2023-11-22T05:42:50;19.08;;;12.35;;
50393;SDS011;36308;46.312;25.288;2023-11-22T05:45:16;20.95;;;11.98;;
50393;SDS011;36308;46.312;25.288;2023-11-22T05:47:41;14.85;;;9.98;;
50393;SDS011;36308;46.312;25.288;2023-11-22T05:50:08;18.67;;;10.80;;
50393;SDS011;36308;46.312;25.288;2023-11-22T05:52:34;18.40;;;10.70;;
50393;SDS011;36308;46.312;25.288;2023-11-22T05:55:00;22.35;;;13.25;;
50393;SDS011;36308;46.312;25.288;2023-11-22T05:57:29;12.75;;;8.95;;
50393;SDS011;36308;46.312;25.288;2023-11-22T05:59:56;16.35;;;10.30;;
50393;SDS011;36308;46.312;25.288;2023-11-22T06:05:07;18.25;;;11.52;;
50393;SDS011;36308;46.312;25.288;2023-11-22T06:07:33;21.73;;;13.38;;
50393;SDS011;36308;46.312;25.288;2023-11-22T06:09:58;29.60;;;16.98;;
50393;SDS011;36308;46.312;25.288;2023-11-22T06:12:25;29.17;;;17.60;;
50393;SDS011;36308;46.312;25.288;2023-11-22T06:14:50;29.50;;;18.02;;
50393;SDS011;36308;46.312;25.288;2023-11-22T06:17:16;27.27;;;15.32;;
50393;SDS011;36308;46.312;25.288;2023-11-22T06:19:41;25.13;;;14.60;;
50393;SDS011;36308;46.312;25.288;2023-11-22T06:22:07;26.55;;;14.02;;
50393;SDS011;36308;46.312;25.288;2023-11-22T06:24:33;25.48;;;15.32;;
50393;SDS011;36308;46.312;25.288;2023-11-22T06:27:01;26.25;;;15.82;;
50393;SDS011;36308;46.312;25.288;2023-11-22T06:29:26;34.33;;;21.75;;
50393;SDS011;36308;46.312;25.288;2023-11-22T06:31:52;39.40;;;23.63;;
50393;SDS011;36308;46.312;25.288;2023-11-22T06:34:18;40.13;;;28.08;;
50393;SDS011;36308;46.312;25.288;2023-11-22T06:36:44;35.65;;;21.40;;
50393;SDS011;36308;46.312;25.288;2023-11-22T06:39:09;33.35;;;17.13;;
50393;SDS011;36308;46.312;25.288;2023-11-22T06:41:38;26.13;;;17.73;;
50393;SDS011;36308;46.312;25.288;2023-11-22T06:44:04;300.17;;;164.05;;
50393;SDS011;36308;46.312;25.288;2023-11-22T06:46:29;123.53;;;68.53;;
50393;SDS011;36308;46.312;25.288;2023-11-22T06:48:55;79.43;;;44.90;;
50393;SDS011;36308;46.312;25.288;2023-11-22T06:51:21;68.53;;;46.83;;
50393;SDS011;36308;46.312;25.288;2023-11-22T06:53:47;82.20;;;52.80;;
50393;SDS011;36308;46.312;25.288;2023-11-22T06:56:12;79.07;;;47.33;;
50393;SDS011;36308;46.312;25.288;2023-11-22T06:58:39;75.47;;;43.53;;
50393;SDS011;36308;46.312;25.288;2023-11-22T07:01:05;62.97;;;38.20;;
50393;SDS011;36308;46.312;25.288;2023-11-22T07:03:32;62.33;;;38.25;;
50393;SDS011;36308;46.312;25.288;2023-11-22T07:05:58;65.35;;;41.05;;
50393;SDS011;36308;46.312;25.288;2023-11-22T07:08:24;67.07;;;39.60;;
50393;SDS011;36308;46.312;25.288;2023-11-22T07:10:50;61.40;;;38.20;;
50393;SDS011;36308;46.312;25.288;2023-11-22T07:13:17;58.38;;;37.40;;
50393;SDS011;36308;46.312;25.288;2023-11-22T07:15:43;51.00;;;32.53;;
50393;SDS011;36308;46.312;25.288;2023-11-22T07:18:08;43.20;;;28.52;;
50393;SDS011;36308;46.312;25.288;2023-11-22T07:20:35;38.28;;;25.85;;
50393;SDS011;36308;46.312;25.288;2023-11-22T07:23:00;41.08;;;24.45;;
50393;SDS011;36308;46.312;25.288;2023-11-22T07:25:27;36.47;;;24.52;;
50393;SDS011;36308;46.312;25.288;2023-11-22T07:27:54;29.70;;;20.70;;
50393;SDS011;36308;46.312;25.288;2023-11-22T07:30:19;31.25;;;20.50;;
50393;SDS011;36308;46.312;25.288;2023-11-22T07:32:48;28.02;;;17.83;;
50393;SDS011;36308;46.312;25.288;2023-11-22T07:35:19;31.20;;;22.05;;
50393;SDS011;36308;46.312;25.288;2023-11-22T07:37:47;39.30;;;24.95;;
50393;SDS011;36308;46.312;25.288;2023-11-22T07:40:13;30.48;;;18.65;;
50393;SDS011;36308;46.312;25.288;2023-11-22T07:42:40;46.97;;;27.40;;
50393;SDS011;36308;46.312;25.288;2023-11-22T07:45:09;39.33;;;22.70;;
50393;SDS011;36308;46.312;25.288;2023-11-22T07:47:37;30.42;;;18.35;;
50393;SDS011;36308;46.312;25.288;2023-11-22T07:50:06;28.67;;;17.60;;
50393;SDS011;36308;46.312;25.288;2023-11-22T07:52:36;30.83;;;18.02;;
50393;SDS011;36308;46.312;25.288;2023-11-22T07:55:03;38.95;;;21.83;;
50393;SDS011;36308;46.312;25.288;2023-11-22T07:57:33;51.63;;;28.38;;
50393;SDS011;36308;46.312;25.288;2023-11-22T07:59:59;205.55;;;88.90;;
50393;SDS011;36308;46.312;25.288;2023-11-22T08:02:26;42.78;;;23.48;;
50393;SDS011;36308;46.312;25.288;2023-11-22T08:04:52;38.38;;;20.90;;
50393;SDS011;36308;46.312;25.288;2023-11-22T08:07:18;37.70;;;20.95;;
50393;SDS011;36308;46.312;25.288;2023-11-22T08:09:43;32.50;;;18.55;;
50393;SDS011;36308;46.312;25.288;2023-11-22T08:12:09;37.95;;;20.45;;
50393;SDS011;36308;46.312;25.288;2023-11-22T08:14:36;32.30;;;17.95;;
50393;SDS011;36308;46.312;25.288;2023-11-22T08:17:02;37.42;;;22.30;;
50393;SDS011;36308;46.312;25.288;2023-11-22T08:19:29;74.32;;;41.13;;
50393;SDS011;36308;46.312;25.288;2023-11-22T08:21:55;50.03;;;27.58;;
50393;SDS011;36308;46.312;25.288;2023-11-22T08:24:20;39.20;;;22.85;;
50393;SDS011;36308;46.312;25.288;2023-11-22T08:26:46;53.72;;;23.65;;
50393;SDS011;36308;46.312;25.288;2023-11-22T08:29:11;49.63;;;25.33;;
50393;SDS011;36308;46.312;25.288;2023-11-22T08:31:37;48.05;;;22.75;;
50393;SDS011;36308;46.312;25.288;2023-11-22T08:34:02;80.55;;;57.03;;
50393;SDS011;36308;46.312;25.288;2023-11-22T08:36:35;46.22;;;28.85;;
50393;SDS011;36308;46.312;25.288;2023-11-22T08:39:01;47.08;;;29.38;;
50393;SDS011;36308;46.312;25.288;2023-11-22T08:41:28;58.00;;;30.23;;
50393;SDS011;36308;46.312;25.288;2023-11-22T08:43:55;45.53;;;26.80;;
50393;SDS011;36308;46.312;25.288;2023-11-22T08:46:22;34.90;;;20.02;;
50393;SDS011;36308;46.312;25.288;2023-11-22T08:48:48;32.72;;;19.13;;
50393;SDS011;36308;46.312;25.288;2023-11-22T08:51:14;55.15;;;37.00;;
50393;SDS011;36308;46.312;25.288;2023-11-22T08:53:40;32.45;;;15.35;;
50393;SDS011;36308;46.312;25.288;2023-11-22T08:56:06;19.63;;;11.77;;
50393;SDS011;36308;46.312;25.288;2023-11-22T08:58:34;20.08;;;10.70;;
50393;SDS011;36308;46.312;25.288;2023-11-22T09:00:59;18.08;;;11.30;;
50393;SDS011;36308;46.312;25.288;2023-11-22T09:03:25;26.77;;;13.10;;
50393;SDS011;36308;46.312;25.288;2023-11-22T09:05:50;23.48;;;12.52;;
50393;SDS011;36308;46.312;25.288;2023-11-22T09:08:17;20.48;;;12.00;;
50393;SDS011;36308;46.312;25.288;2023-11-22T09:10:44;22.52;;;13.10;;
50393;SDS011;36308;46.312;25.288;2023-11-22T09:13:10;27.15;;;14.50;;
50393;SDS011;36308;46.312;25.288;2023-11-22T09:15:36;26.90;;;16.58;;
50393;SDS011;36308;46.312;25.288;2023-11-22T09:18:03;27.13;;;15.73;;
50393;SDS011;36308;46.312;25.288;2023-11-22T09:20:29;22.80;;;14.30;;
50393;SDS011;36308;46.312;25.288;2023-11-22T09:22:55;26.67;;;14.32;;
50393;SDS011;36308;46.312;25.288;2023-11-22T09:25:21;24.73;;;14.25;;
50393;SDS011;36308;46.312;25.288;2023-11-22T09:27:51;23.35;;;14.57;;
50393;SDS011;36308;46.312;25.288;2023-11-22T09:30:20;21.92;;;13.52;;
50393;SDS011;36308;46.312;25.288;2023-11-22T09:33:12;26.17;;;14.23;;
50393;SDS011;36308;46.312;25.288;2023-11-22T09:35:43;19.38;;;12.20;;
50393;SDS011;36308;46.312;25.288;2023-11-22T09:38:10;21.25;;;10.82;;
50393;SDS011;36308;46.312;25.288;2023-11-22T09:43:09;16.70;;;9.15;;
50393;SDS011;36308;46.312;25.288;2023-11-22T09:45:35;16.27;;;9.80;;
50393;SDS011;36308;46.312;25.288;2023-11-22T09:48:03;23.35;;;12.77;;
50393;SDS011;36308;46.312;25.288;2023-11-22T09:56:08;32.78;;;16.08;;
50393;SDS011;36308;46.312;25.288;2023-11-22T09:58:40;31.63;;;18.10;;
50393;SDS011;36308;46.312;25.288;2023-11-22T10:01:10;31.02;;;17.27;;
50393;SDS011;36308;46.312;25.288;2023-11-22T10:03:38;26.70;;;14.70;;
50393;SDS011;36308;46.312;25.288;2023-11-22T10:06:04;32.30;;;15.23;;
50393;SDS011;36308;46.312;25.288;2023-11-22T10:08:30;37.90;;;17.90;;
50393;SDS011;36308;46.312;25.288;2023-11-22T10:10:57;27.88;;;16.10;;
50393;SDS011;36308;46.312;25.288;2023-11-22T10:13:22;40.13;;;18.77;;
50393;SDS011;36308;46.312;25.288;2023-11-22T10:15:48;35.22;;;20.00;;
50393;SDS011;36308;46.312;25.288;2023-11-22T10:18:15;51.28;;;24.67;;
50393;SDS011;36308;46.312;25.288;2023-11-22T10:20:43;43.72;;;24.58;;
50393;SDS011;36308;46.312;25.288;2023-11-22T10:23:12;40.88;;;22.92;;
50393;SDS011;36308;46.312;25.288;2023-11-22T10:25:44;36.72;;;20.40;;
50393;SDS011;36308;46.312;25.288;2023-11-22T10:28:20;35.03;;;16.98;;
50393;SDS011;36308;46.312;25.288;2023-11-22T10:30:49;26.20;;;11.90;;
50393;SDS011;36308;46.312;25.288;2023-11-22T10:33:16;15.25;;;8.80;;
50393;SDS011;36308;46.312;25.288;2023-11-22T10:35:45;23.45;;;13.25;;
50393;SDS011;36308;46.312;25.288;2023-11-22T10:38:15;21.60;;;12.52;;
50393;SDS011;36308;46.312;25.288;2023-11-22T10:40:41;19.35;;;10.98;;
50393;SDS011;36308;46.312;25.288;2023-11-22T10:43:09;27.60;;;16.35;;
50393;SDS011;36308;46.312;25.288;2023-11-22T10:45:37;22.45;;;14.63;;
50393;SDS011;36308;46.312;25.288;2023-11-22T10:48:03;26.05;;;14.82;;
50393;SDS011;36308;46.312;25.288;2023-11-22T10:50:30;29.42;;;14.27;;
50393;SDS011;36308;46.312;25.288;2023-11-22T10:52:59;23.65;;;13.25;;
50393;SDS011;36308;46.312;25.288;2023-11-22T10:55:31;15.45;;;8.43;;
50393;SDS011;36308;46.312;25.288;2023-11-22T10:58:04;22.55;;;12.48;;
50393;SDS011;36308;46.312;25.288;2023-11-22T11:00:31;10.02;;;4.65;;
50393;SDS011;36308;46.312;25.288;2023-11-22T11:03:03;6.32;;;3.58;;
50393;SDS011;36308;46.312;25.288;2023-11-22T11:05:58;15.55;;;7.55;;
50393;SDS011;36308;46.312;25.288;2023-11-22T11:08:29;33.50;;;16.33;;
50393;SDS011;36308;46.312;25.288;2023-11-22T11:10:57;34.83;;;17.90;;
50393;SDS011;36308;46.312;25.288;2023-11-22T11:13:24;23.58;;;11.38;;
50393;SDS011;36308;46.312;25.288;2023-11-22T11:15:49;14.88;;;9.10;;
50393;SDS011;36308;46.312;25.288;2023-11-22T11:18:18;19.05;;;8.88;;
50393;SDS011;36308;46.312;25.288;2023-11-22T11:20:57;15.48;;;7.72;;
50393;SDS011;36308;46.312;25.288;2023-11-22T11:23:27;16.10;;;7.72;;
50393;SDS011;36308;46.312;25.288;2023-11-22T11:25:58;14.75;;;8.27;;
50393;SDS011;36308;46.312;25.288;2023-11-22T11:28:25;15.45;;;7.38;;
50393;SDS011;36308;46.312;25.288;2023-11-22T11:30:53;10.10;;;6.45;;
50393;SDS011;36308;46.312;25.288;2023-11-22T11:33:26;12.32;;;6.80;;
50393;SDS011;36308;46.312;25.288;2023-11-22T11:35:53;15.95;;;7.97;;
50393;SDS011;36308;46.312;25.288;2023-11-22T11:38:22;33.80;;;11.77;;
50393;SDS011;36308;46.312;25.288;2023-11-22T11:43:58;16.88;;;7.32;;
50393;SDS011;36308;46.312;25.288;2023-11-22T11:46:26;15.73;;;7.00;;
50393;SDS011;36308;46.312;25.288;2023-11-22T11:48:53;12.80;;;6.97;;
50393;SDS011;36308;46.312;25.288;2023-11-22T11:51:26;10.80;;;6.13;;
50393;SDS011;36308;46.312;25.288;2023-11-22T11:53:53;20.17;;;10.27;;
50393;SDS011;36308;46.312;25.288;2023-11-22T11:56:20;23.80;;;11.15;;
50393;SDS011;36308;46.312;25.288;2023-11-22T11:58:46;17.98;;;8.25;;
50393;SDS011;36308;46.312;25.288;2023-11-22T12:01:14;17.73;;;8.45;;
50393;SDS011;36308;46.312;25.288;2023-11-22T12:03:41;12.77;;;6.88;;
50393;SDS011;36308;46.312;25.288;2023-11-22T12:06:08;20.00;;;7.95;;
50393;SDS011;36308;46.312;25.288;2023-11-22T12:08:35;11.75;;;7.13;;
50393;SDS011;36308;46.312;25.288;2023-11-22T12:11:01;11.93;;;6.82;;
50393;SDS011;36308;46.312;25.288;2023-11-22T12:13:29;19.73;;;7.97;;
50393;SDS011;36308;46.312;25.288;2023-11-22T12:15:55;23.65;;;12.95;;
50393;SDS011;36308;46.312;25.288;2023-11-22T12:18:43;26.33;;;14.05;;
50393;SDS011;36308;46.312;25.288;2023-11-22T12:21:14;44.92;;;25.85;;
50393;SDS011;36308;46.312;25.288;2023-11-22T12:23:41;33.22;;;22.15;;
50393;SDS011;36308;46.312;25.288;2023-11-22T12:26:12;26.75;;;17.45;;
50393;SDS011;36308;46.312;25.288;2023-11-22T12:28:39;22.38;;;11.40;;
50393;SDS011;36308;46.312;25.288;2023-11-22T12:31:06;8.75;;;4.68;;
50393;SDS011;36308;46.312;25.288;2023-11-22T12:33:34;9.40;;;5.05;;
50393;SDS011;36308;46.312;25.288;2023-11-22T12:36:01;9.25;;;4.90;;
50393;SDS011;36308;46.312;25.288;2023-11-22T12:38:27;18.25;;;10.02;;
50393;SDS011;36308;46.312;25.288;2023-11-22T12:40:56;14.80;;;8.15;;
50393;SDS011;36308;46.312;25.288;2023-11-22T12:43:22;12.90;;;7.20;;
50393;SDS011;36308;46.312;25.288;2023-11-22T12:45:47;11.15;;;4.10;;
50393;SDS011;36308;46.312;25.288;2023-11-22T12:48:24;14.60;;;5.78;;
50393;SDS011;36308;46.312;25.288;2023-11-22T12:50:51;6.28;;;3.92;;
50393;SDS011;36308;46.312;25.288;2023-11-22T12:53:17;33.53;;;19.58;;
50393;SDS011;36308;46.312;25.288;2023-11-22T12:55:47;37.90;;;22.63;;
50393;SDS011;36308;46.312;25.288;2023-11-22T12:58:17;27.65;;;18.90;;
50393;SDS011;36308;46.312;25.288;2023-11-22T13:00:47;25.08;;;16.88;;
50393;SDS011;36308;46.312;25.288;2023-11-22T13:03:14;20.92;;;13.75;;
50393;SDS011;36308;46.312;25.288;2023-11-22T13:05:40;18.10;;;8.82;;
50393;SDS011;36308;46.312;25.288;2023-11-22T13:08:12;19.55;;;8.75;;
50393;SDS011;36308;46.312;25.288;2023-11-22T13:10:51;23.13;;;11.77;;
50393;SDS011;36308;46.312;25.288;2023-11-22T13:13:23;34.13;;;22.05;;
50393;SDS011;36308;46.312;25.288;2023-11-22T13:15:49;47.13;;;25.05;;
50393;SDS011;36308;46.312;25.288;2023-11-22T13:18:15;56.88;;;30.63;;
50393;SDS011;36308;46.312;25.288;2023-11-22T13:20:41;29.58;;;19.30;;
50393;SDS011;36308;46.312;25.288;2023-11-22T13:23:08;34.20;;;17.80;;
50393;SDS011;36308;46.312;25.288;2023-11-22T13:25:33;29.02;;;17.63;;
50393;SDS011;36308;46.312;25.288;2023-11-22T13:27:59;23.73;;;13.40;;
50393;SDS011;36308;46.312;25.288;2023-11-22T13:30:25;31.45;;;19.13;;
50393;SDS011;36308;46.312;25.288;2023-11-22T13:32:55;26.33;;;16.35;;
50393;SDS011;36308;46.312;25.288;2023-11-22T13:35:22;20.73;;;13.45;;
50393;SDS011;36308;46.312;25.288;2023-11-22T13:37:48;23.55;;;10.77;;
50393;SDS011;36308;46.312;25.288;2023-11-22T13:40:15;19.10;;;10.45;;
50393;SDS011;36308;46.312;25.288;2023-11-22T13:42:48;17.27;;;10.98;;
50393;SDS011;36308;46.312;25.288;2023-11-22T13:45:16;16.08;;;9.60;;
50393;SDS011;36308;46.312;25.288;2023-11-22T13:47:51;26.10;;;11.32;;
50393;SDS011;36308;46.312;25.288;2023-11-22T13:50:28;18.98;;;10.55;;
50393;SDS011;36308;46.312;25.288;2023-11-22T13:52:55;18.70;;;11.10;;
50393;SDS011;36308;46.312;25.288;2023-11-22T13:55:22;20.70;;;11.90;;
50393;SDS011;36308;46.312;25.288;2023-11-22T13:57:51;16.08;;;9.02;;
50393;SDS011;36308;46.312;25.288;2023-11-22T14:00:18;15.18;;;7.47;;
50393;SDS011;36308;46.312;25.288;2023-11-22T14:02:51;23.65;;;14.23;;
50393;SDS011;36308;46.312;25.288;2023-11-22T14:05:29;25.05;;;14.30;;
50393;SDS011;36308;46.312;25.288;2023-11-22T14:07:55;15.02;;;8.45;;
50393;SDS011;36308;46.312;25.288;2023-11-22T14:10:21;11.00;;;6.47;;
50393;SDS011;36308;46.312;25.288;2023-11-22T14:12:50;15.40;;;10.82;;
50393;SDS011;36308;46.312;25.288;2023-11-22T14:15:17;15.63;;;10.25;;
50393;SDS011;36308;46.312;25.288;2023-11-22T14:17:44;26.33;;;13.95;;
50393;SDS011;36308;46.312;25.288;2023-11-22T14:20:14;23.25;;;16.40;;
50393;SDS011;36308;46.312;25.288;2023-11-22T14:22:40;27.95;;;20.33;;
50393;SDS011;36308;46.312;25.288;2023-11-22T14:25:07;23.73;;;15.65;;
50393;SDS011;36308;46.312;25.288;2023-11-22T14:27:39;20.73;;;14.63;;
50393;SDS011;36308;46.312;25.288;2023-11-22T14:30:08;22.63;;;14.00;;
50393;SDS011;36308;46.312;25.288;2023-11-22T14:32:36;51.75;;;31.80;;
50393;SDS011;36308;46.312;25.288;2023-11-22T14:35:05;39.05;;;27.00;;